createdAt,value
2023-01-05T00:01:17.962Z,98560.00
2023-01-05T00:04:11.472Z,98559.00
2023-01-05T00:09:48.607Z,98550.00
2023-01-05T00:12:46.958Z,98542.00
2023-01-05T00:15:48.680Z,98542.00
2023-01-05T00:18:37.438Z,98535.00
2023-01-05T00:21:34.797Z,98538.00
2023-01-05T00:24:18.763Z,98547.00
2023-01-05T00:27:10.464Z,98535.00
2023-01-05T00:29:47.452Z,98536.00
2023-01-05T00:32:25.003Z,98534.00
2023-01-05T00:35:06.476Z,98531.00
2023-01-05T00:37:42.057Z,98530.00
2023-01-05T00:40:37.499Z,98529.00
2023-01-05T00:43:13.107Z,98525.00
2023-01-05T00:45:51.640Z,98528.00
2023-01-05T00:48:34.537Z,98528.00
2023-01-05T00:51:16.538Z,98521.00
2023-01-05T00:53:58.833Z,98508.00
2023-01-05T00:56:33.614Z,98510.00
2023-01-05T00:59:04.221Z,98507.00
2023-01-05T01:01:53.683Z,98497.00
2023-01-05T01:04:28.035Z,98499.00
2023-01-05T01:07:06.299Z,98483.00
2023-01-05T01:09:41.296Z,98479.00
2023-01-05T01:12:13.877Z,98470.00
2023-01-05T01:14:54.244Z,98470.00
2023-01-05T01:17:42.953Z,98472.00
2023-01-05T01:20:21.331Z,98474.00
2023-01-05T01:23:01.131Z,98461.00
2023-01-05T01:25:38.093Z,98466.00
2023-01-05T01:28:12.930Z,98464.00
2023-01-05T01:30:47.674Z,98463.00
2023-01-05T01:33:33.862Z,98468.00
2023-01-05T01:36:16.121Z,98465.00
2023-01-05T01:38:53.206Z,98452.00
2023-01-05T01:45:04.755Z,98462.00
2023-01-05T01:47:44.702Z,98457.00
2023-01-05T01:50:28.782Z,98452.00
2023-01-05T01:53:03.235Z,98459.00
2023-01-05T01:55:39.141Z,98451.00
2023-01-05T01:58:25.137Z,98463.00
2023-01-05T02:01:27.461Z,98458.00
2023-01-05T02:04:14.589Z,98466.00
2023-01-05T02:06:54.785Z,98472.00
2023-01-05T02:09:35.526Z,98470.00
2023-01-05T02:12:25.496Z,98483.00
2023-01-05T02:15:08.188Z,98469.00
2023-01-05T02:18:01.732Z,98472.00
2023-01-05T02:21:16.561Z,98474.00
2023-01-05T02:24:22.785Z,98466.00
2023-01-05T05:06:50.888Z,98521.00
2023-01-05T05:09:19.946Z,98494.00
2023-01-05T05:11:48.261Z,98512.00
2023-01-05T05:14:16.624Z,98501.00
2023-01-05T05:16:44.817Z,98503.00
2023-01-05T05:19:13.386Z,98524.00
2023-01-05T05:21:41.747Z,98486.00
2023-01-05T05:24:12.053Z,98599.00
2023-01-05T05:26:40.400Z,98536.00
2023-01-05T05:29:08.621Z,98509.00
2023-01-05T05:31:37.255Z,98550.00
2023-01-05T05:34:05.611Z,98579.00
2023-01-05T05:36:34.604Z,98510.00
2023-01-05T05:39:02.975Z,98487.00
2023-01-05T05:41:32.698Z,98580.00
2023-01-05T05:44:05.194Z,98526.00
2023-01-05T05:46:33.534Z,98587.00
2023-01-05T05:49:01.815Z,98568.00
2023-01-05T05:51:30.099Z,98485.00
2023-01-05T05:53:58.479Z,98512.00
2023-01-05T05:56:27.061Z,98514.00
2023-01-05T05:59:01.532Z,98584.00
2023-01-05T06:01:30.666Z,98604.00
2023-01-05T06:03:59.424Z,98565.00
2023-01-05T06:06:27.586Z,98640.00
2023-01-05T06:08:55.921Z,98545.00
2023-01-05T06:11:24.321Z,98622.00
2023-01-05T06:13:52.889Z,98595.00
2023-01-05T06:16:23.854Z,98510.00
2023-01-05T06:18:55.052Z,98574.00
2023-01-05T06:21:23.446Z,98541.00
2023-01-05T06:23:51.577Z,98521.00
2023-01-05T06:26:20.104Z,98588.00
2023-01-05T06:28:48.318Z,98584.00
2023-01-05T06:31:16.593Z,98565.00
2023-01-05T06:33:47.326Z,98590.00
2023-01-05T06:36:15.387Z,98578.00
2023-01-05T06:38:43.485Z,98581.00
2023-01-05T06:41:11.530Z,98590.00
2023-01-05T06:43:39.605Z,98593.00
2023-01-05T06:46:07.784Z,98597.00
2023-01-05T06:48:35.928Z,98588.00
2023-01-05T06:51:05.527Z,98595.00
2023-01-05T06:53:33.615Z,98603.00
2023-01-05T06:56:01.667Z,98601.00
2023-01-05T06:58:29.677Z,98610.00
2023-01-05T07:00:57.857Z,98605.00
2023-01-05T07:03:26.059Z,98608.00
2023-01-05T07:05:54.141Z,98616.00
2023-01-05T07:08:23.523Z,98627.00
2023-01-05T07:10:51.569Z,98628.00
2023-01-05T07:13:19.571Z,98638.00
2023-01-05T07:15:47.639Z,98638.00
2023-01-05T07:18:15.652Z,98649.00
2023-01-05T07:20:43.730Z,98644.00
2023-01-05T07:23:11.744Z,98658.00
2023-01-05T07:25:41.147Z,98662.00
2023-01-05T07:28:09.154Z,98668.00
2023-01-05T07:30:37.368Z,98673.00
2023-01-05T07:33:05.802Z,98684.00
2023-01-05T07:35:33.880Z,98683.00
2023-01-05T07:38:01.914Z,98678.00
2023-01-05T07:40:30.102Z,98676.00
2023-01-05T07:42:59.750Z,98683.00
2023-01-05T07:45:27.852Z,98704.00
2023-01-05T07:47:55.933Z,98702.00
2023-01-05T07:50:24.134Z,98702.00
2023-01-05T07:52:52.195Z,98686.00
2023-01-05T07:55:20.243Z,98711.00
2023-01-05T07:57:48.908Z,98721.00
2023-01-05T08:00:18.954Z,98729.00
2023-01-05T08:02:47.212Z,98724.00
2023-01-05T08:05:15.550Z,98732.00
2023-01-05T08:07:43.593Z,98736.00
2023-01-05T08:10:29.839Z,98728.00
2023-01-05T08:13:21.606Z,98733.00
2023-01-05T08:15:51.813Z,98746.00
2023-01-05T08:18:19.878Z,98741.00
2023-01-05T08:20:52.422Z,98743.00
2023-01-05T08:23:25.579Z,98741.00
2023-01-05T08:25:54.955Z,98753.00
2023-01-05T08:28:23.036Z,98745.00
2023-01-05T08:30:52.476Z,98746.00
2023-01-05T08:33:20.595Z,98744.00
2023-01-05T08:35:49.052Z,98739.00
2023-01-05T08:38:21.720Z,98746.00
2023-01-05T08:40:49.776Z,98750.00
2023-01-05T08:43:17.848Z,98740.00
2023-01-05T08:45:49.391Z,98740.00
2023-01-05T08:48:19.277Z,98746.00
2023-01-05T08:50:47.322Z,98749.00
2023-01-05T08:53:15.361Z,98748.00
2023-01-05T08:55:44.466Z,98752.00
2023-01-05T08:58:12.522Z,98756.00
2023-01-05T09:00:40.771Z,98759.00
2023-01-05T09:03:08.843Z,98765.00
2023-01-05T09:05:38.329Z,98754.00
2023-01-05T09:08:06.546Z,98762.00
2023-01-05T09:10:34.626Z,98760.00
2023-01-05T09:13:02.821Z,98767.00
2023-01-05T09:15:31.336Z,98771.00
2023-01-05T09:17:59.521Z,98767.00
2023-01-05T09:20:27.703Z,98778.00
2023-01-05T09:22:57.216Z,98787.00
2023-01-05T09:25:25.268Z,98795.00
2023-01-05T09:27:53.322Z,98788.00
2023-01-05T09:30:21.488Z,98799.00
2023-01-05T09:32:49.623Z,98815.00
2023-01-05T09:35:17.844Z,98813.00
2023-01-05T09:37:46.101Z,98819.00
2023-01-05T09:40:15.889Z,98824.00
2023-01-05T09:42:45.184Z,98826.00
2023-01-05T09:45:13.274Z,98829.00
2023-01-05T09:47:41.921Z,98834.00
2023-01-05T09:50:14.618Z,98839.00
2023-01-05T09:52:42.726Z,98840.00
2023-01-05T09:55:15.410Z,98847.00
2023-01-05T09:57:43.541Z,98839.00
2023-01-05T10:00:12.823Z,98845.00
2023-01-05T10:02:44.448Z,98849.00
2023-01-05T10:05:13.007Z,98853.00
2023-01-05T10:07:43.314Z,98839.00
2023-01-05T10:10:23.447Z,98830.00
2023-01-05T10:13:07.010Z,98829.00
2023-01-05T10:15:39.875Z,98842.00
2023-01-05T10:18:13.288Z,98841.00
2023-01-05T10:20:48.039Z,98831.00
2023-01-05T10:23:21.731Z,98831.00
2023-01-05T10:25:53.592Z,98826.00
2023-01-05T10:28:33.887Z,98822.00
2023-01-05T10:31:02.799Z,98829.00
2023-01-05T10:33:52.062Z,98820.00
2023-01-05T10:37:06.592Z,98817.00
2023-01-05T10:39:25.155Z,98815.00
2023-01-05T10:41:59.490Z,98818.00
2023-01-05T10:44:48.441Z,98823.00
2023-01-05T10:47:16.865Z,98818.00
2023-01-05T10:49:45.496Z,98823.00
2023-01-05T10:52:14.560Z,98830.00
2023-01-05T10:54:45.078Z,98829.00
2023-01-05T10:57:37.315Z,98823.00
2023-01-05T11:00:16.285Z,98821.00
2023-01-05T11:02:49.828Z,98826.00
2023-01-05T11:05:26.605Z,98834.00
2023-01-05T11:07:56.055Z,98839.00
2023-01-05T11:10:25.502Z,98834.00
2023-01-05T11:12:57.126Z,98841.00
2023-01-05T11:15:25.269Z,98852.00
2023-01-05T11:17:53.327Z,98855.00
2023-01-05T11:20:22.226Z,98848.00
2023-01-05T11:22:51.325Z,98847.00
2023-01-05T11:25:24.360Z,98845.00
2023-01-05T11:28:15.900Z,98859.00
2023-01-05T11:30:50.417Z,98857.00
2023-01-05T11:33:25.394Z,98862.00
2023-01-05T11:35:53.706Z,98864.00
2023-01-05T11:38:24.100Z,98864.00
2023-01-05T11:40:52.118Z,98872.00
2023-01-05T11:43:21.851Z,98870.00
2023-01-05T11:45:52.004Z,98862.00
2023-01-05T11:48:21.961Z,98869.00
2023-01-05T11:50:51.099Z,98877.00
2023-01-05T11:53:26.020Z,98884.00
2023-01-05T11:56:00.913Z,98874.00
2023-01-05T11:58:32.696Z,98870.00
2023-01-05T12:01:40.420Z,98862.00
2023-01-05T12:04:13.805Z,98862.00
2023-01-05T12:06:56.064Z,98864.00
2023-01-05T12:09:31.351Z,98876.00
2023-01-05T12:12:17.201Z,98867.00
2023-01-05T12:14:57.512Z,98880.00
2023-01-05T12:17:27.445Z,98875.00
2023-01-05T12:20:04.688Z,98869.00
2023-01-05T12:22:40.640Z,98853.00
2023-01-05T12:25:13.664Z,98854.00
2023-01-05T12:28:01.768Z,98874.00
2023-01-05T12:36:38.963Z,98859.00
2023-01-05T12:39:15.322Z,98862.00
2023-01-05T12:41:55.223Z,98872.00
2023-01-05T12:44:46.968Z,98868.00
2023-01-05T12:47:32.541Z,98880.00
2023-01-05T12:50:01.905Z,98878.00
2023-01-05T12:52:33.128Z,98877.00
2023-01-05T12:55:03.520Z,98883.00
2023-01-05T12:57:34.668Z,98888.00
2023-01-05T13:00:05.906Z,98882.00
2023-01-05T13:02:36.801Z,98884.00
2023-01-05T13:05:07.850Z,98873.00
2023-01-05T13:07:39.282Z,98875.00
2023-01-05T13:10:12.374Z,98871.00
2023-01-05T13:12:40.412Z,98865.00
2023-01-05T13:15:15.722Z,98845.00
2023-01-05T13:17:46.978Z,98856.00
2023-01-05T13:20:24.409Z,98863.00
2023-01-05T13:22:53.201Z,98859.00
2023-01-05T13:25:22.405Z,98866.00
2023-01-05T13:27:50.412Z,98867.00
2023-01-05T13:30:22.936Z,98882.00
2023-01-05T13:33:00.549Z,98881.00
2023-01-05T13:35:49.105Z,98885.00
2023-01-05T13:38:38.152Z,98882.00
2023-01-05T13:41:29.672Z,98879.00
2023-01-05T13:44:23.334Z,98893.00
2023-01-05T13:47:06.530Z,98889.00
2023-01-05T13:49:56.810Z,98883.00
2023-01-05T13:52:30.094Z,98889.00
2023-01-05T13:55:02.322Z,98880.00
2023-01-05T13:57:31.806Z,98878.00
2023-01-05T14:00:11.940Z,98883.00
2023-01-05T14:02:41.419Z,98880.00
2023-01-05T14:05:17.086Z,98886.00
2023-01-05T14:07:45.076Z,98889.00
2023-01-05T14:10:21.420Z,98897.00
2023-01-05T14:12:50.030Z,98898.00
2023-01-05T14:15:36.577Z,98895.00
2023-01-05T14:18:04.968Z,98909.00
2023-01-05T14:20:36.605Z,98914.00
2023-01-05T14:23:25.778Z,98913.00
2023-01-05T14:25:55.567Z,98932.00
2023-01-05T14:28:43.377Z,98926.00
2023-01-05T14:31:53.001Z,98925.00
2023-01-05T14:34:21.647Z,98937.00
2023-01-05T14:37:01.305Z,98941.00
2023-01-05T14:39:31.076Z,98927.00
2023-01-05T14:42:03.239Z,98943.00
2023-01-05T14:44:34.214Z,98942.00
2023-01-05T14:47:02.233Z,98943.00
2023-01-05T14:49:32.544Z,98961.00
2023-01-05T14:52:01.452Z,98970.00
2023-01-05T14:55:26.869Z,98976.00
2023-01-05T14:58:05.216Z,98970.00
2023-01-05T15:00:38.796Z,98965.00
2023-01-05T15:03:19.949Z,98976.00
2023-01-05T15:05:55.218Z,98974.00
2023-01-05T15:08:32.581Z,98983.00
2023-01-05T15:11:28.924Z,98988.00
2023-01-05T15:14:35.792Z,98977.00
2023-01-05T15:17:19.048Z,98973.00
2023-01-05T15:19:54.829Z,98982.00
2023-01-05T15:22:40.284Z,98976.00
2023-01-05T15:25:53.123Z,98979.00
2023-01-05T15:29:10.252Z,98989.00
2023-01-05T15:31:40.350Z,98990.00
2023-01-05T15:34:20.088Z,98997.00
2023-01-05T15:36:52.583Z,99001.00
2023-01-05T15:39:24.908Z,98996.00
2023-01-05T15:41:53.312Z,98998.00
2023-01-05T15:44:21.389Z,99000.00
2023-01-05T15:46:50.865Z,99000.00
2023-01-05T15:49:20.283Z,99012.00
2023-01-05T15:51:51.420Z,99012.00
2023-01-05T15:54:22.497Z,99010.00
2023-01-05T15:56:50.985Z,99007.00
2023-01-05T15:59:29.815Z,99003.00
2023-01-05T16:01:59.498Z,99007.00
2023-01-05T16:04:27.563Z,99012.00
2023-01-05T16:07:01.650Z,99009.00
2023-01-05T16:09:33.164Z,99020.00
2023-01-05T16:12:07.441Z,99011.00
2023-01-05T16:14:36.858Z,99025.00
2023-01-05T16:17:08.406Z,99020.00
2023-01-05T16:19:38.377Z,99017.00
2023-01-05T16:22:09.033Z,99019.00
2023-01-05T16:24:40.586Z,99024.00
2023-01-05T16:27:10.724Z,99022.00
2023-01-05T16:29:40.924Z,99032.00
2023-01-05T16:32:29.200Z,99027.00
2023-01-05T16:35:22.147Z,99034.00
2023-01-05T16:38:16.198Z,99037.00
2023-01-05T16:41:08.665Z,99040.00
2023-01-05T16:43:38.342Z,99041.00
2023-01-05T16:46:29.063Z,99040.00
2023-01-05T16:49:00.300Z,99036.00
2023-01-05T16:51:38.830Z,99036.00
2023-01-05T16:54:08.916Z,99032.00
2023-01-05T16:56:57.805Z,99033.00
2023-01-05T16:59:46.724Z,99025.00
2023-01-05T17:02:54.181Z,99034.00
2023-01-05T17:05:24.433Z,99041.00
2023-01-05T17:07:56.988Z,99047.00
2023-01-05T17:10:25.727Z,99048.00
2023-01-05T17:12:56.476Z,99055.00
2023-01-05T17:15:26.332Z,99049.00
2023-01-05T17:17:56.373Z,99061.00
2023-01-05T17:20:27.653Z,99060.00
2023-01-05T17:22:55.678Z,99057.00
2023-01-05T17:25:24.241Z,99059.00
2023-01-05T17:27:52.303Z,99059.00
2023-01-05T17:30:21.985Z,99049.00
2023-01-05T17:32:50.074Z,99052.00
2023-01-05T17:35:19.921Z,99058.00
2023-01-05T17:37:50.088Z,99060.00
2023-01-05T17:40:20.611Z,99057.00
2023-01-05T17:42:48.693Z,99060.00
2023-01-05T17:45:17.969Z,99061.00
2023-01-05T17:47:47.325Z,99060.00
2023-01-05T17:50:16.541Z,99069.00
2023-01-05T17:52:44.583Z,99064.00
2023-01-05T17:55:14.264Z,99060.00
2023-01-05T17:57:43.495Z,99061.00
2023-01-05T18:00:13.366Z,99065.00
2023-01-05T18:02:41.587Z,99073.00
2023-01-05T18:05:10.402Z,99070.00
2023-01-05T18:07:38.821Z,99061.00
2023-01-05T18:12:38.019Z,99072.00
2023-01-05T18:15:07.185Z,99069.00
2023-01-05T18:20:04.251Z,99078.00
2023-01-05T18:22:32.355Z,99072.00
2023-01-05T18:25:00.463Z,99068.00
2023-01-05T18:27:28.512Z,99077.00
2023-01-05T18:29:57.910Z,99079.00
2023-01-05T18:32:25.959Z,99084.00
2023-01-05T18:34:54.041Z,99086.00
2023-01-05T18:37:22.327Z,99086.00
2023-01-05T18:39:51.063Z,99089.00
2023-01-05T18:42:19.316Z,99088.00
2023-01-05T18:44:47.396Z,99089.00
2023-01-05T18:47:17.034Z,99086.00
2023-01-05T18:49:45.205Z,99081.00
2023-01-05T18:52:13.280Z,99091.00
2023-01-05T18:54:41.654Z,99087.00
2023-01-05T18:57:09.759Z,99085.00
2023-01-05T18:59:37.898Z,99089.00
2023-01-05T19:02:06.012Z,99098.00
2023-01-05T19:04:35.532Z,99099.00
2023-01-05T19:07:03.658Z,99085.00
2023-01-05T19:09:31.819Z,99095.00
2023-01-05T19:11:59.817Z,99093.00
2023-01-05T19:14:28.145Z,99096.00
2023-01-05T19:16:56.245Z,99087.00
2023-01-05T19:19:25.108Z,99088.00
2023-01-05T19:21:55.271Z,99089.00
2023-01-05T19:24:24.854Z,99103.00
2023-01-05T19:26:56.098Z,99088.00
2023-01-05T19:29:25.110Z,99105.00
2023-01-05T19:31:53.216Z,99101.00
2023-01-05T19:34:21.387Z,99090.00
2023-01-05T19:36:49.527Z,99091.00
2023-01-05T19:39:21.671Z,99097.00
2023-01-05T19:41:51.568Z,99088.00
2023-01-05T19:44:20.981Z,99081.00
2023-01-05T19:46:53.278Z,99097.00
2023-01-05T19:49:23.301Z,99091.00
2023-01-05T19:51:51.763Z,99096.00
2023-01-05T19:54:22.474Z,99105.00
2023-01-05T19:56:50.929Z,99094.00
2023-01-05T19:59:21.645Z,99086.00
2023-01-05T20:01:49.786Z,99093.00
2023-01-05T20:04:17.941Z,99095.00
2023-01-05T20:06:46.860Z,99092.00
2023-01-05T20:09:17.596Z,99093.00
2023-01-05T20:11:48.967Z,99090.00
2023-01-05T20:14:18.201Z,99087.00
2023-01-05T20:16:50.037Z,99081.00
2023-01-05T20:19:18.843Z,99083.00
2023-01-05T20:21:47.012Z,99088.00
2023-01-05T20:24:15.972Z,99090.00
2023-01-05T20:26:45.244Z,99092.00
2023-01-05T20:29:15.126Z,99101.00
2023-01-05T20:31:44.623Z,99093.00
2023-01-05T20:34:21.172Z,99105.00
2023-01-05T20:36:49.676Z,99099.00
2023-01-05T20:39:19.077Z,99101.00
2023-01-05T20:41:49.207Z,99104.00
2023-01-05T20:44:19.566Z,99110.00
2023-01-05T20:46:48.536Z,99111.00
2023-01-05T20:49:17.145Z,99107.00
2023-01-05T20:51:45.216Z,99113.00
2023-01-05T20:54:13.417Z,99117.00
2023-01-05T20:56:43.660Z,99121.00
2023-01-05T20:59:13.589Z,99122.00
2023-01-05T21:01:44.657Z,99107.00
2023-01-05T21:04:13.925Z,99114.00
2023-01-05T21:06:42.376Z,99115.00
2023-01-05T21:09:10.491Z,99112.00
2023-01-05T21:11:39.019Z,99107.00
2023-01-05T21:14:08.903Z,99113.00
2023-01-05T21:16:38.883Z,99112.00
2023-01-05T21:19:08.786Z,99115.00
2023-01-05T21:21:37.531Z,99113.00
2023-01-05T21:24:07.922Z,99116.00
2023-01-05T21:26:36.115Z,99127.00
2023-01-05T21:29:05.709Z,99129.00
2023-01-05T21:31:33.951Z,99131.00
2023-01-05T21:34:02.052Z,99112.00
2023-01-05T21:36:32.473Z,99116.00
2023-01-05T21:39:03.742Z,99110.00
2023-01-05T21:41:49.521Z,99119.00
2023-01-05T21:44:17.995Z,99103.00
2023-01-05T21:46:46.113Z,99111.00
2023-01-05T21:49:14.534Z,99098.00
2023-01-05T21:52:01.350Z,99115.00
2023-01-05T21:54:47.104Z,99103.00
2023-01-05T21:57:15.387Z,99104.00
2023-01-05T21:59:43.778Z,99097.00
2023-01-05T22:02:12.568Z,99094.00
2023-01-05T22:04:41.312Z,99084.00
2023-01-05T22:07:10.849Z,99090.00
2023-01-05T22:09:39.123Z,99094.00
2023-01-05T22:12:08.744Z,99087.00
2023-01-05T22:14:37.120Z,99081.00
2023-01-05T22:17:05.560Z,99083.00
2023-01-05T22:19:33.616Z,99087.00
2023-01-05T22:22:01.645Z,99091.00
2023-01-05T22:24:31.167Z,99096.00
2023-01-05T22:26:59.249Z,99090.00
2023-01-05T22:29:27.277Z,99081.00
2023-01-05T22:31:55.530Z,99083.00
2023-01-05T22:34:23.557Z,99090.00
2023-01-05T22:36:54.250Z,99087.00
2023-01-05T22:39:22.710Z,99087.00
2023-01-05T22:41:52.192Z,99090.00
2023-01-05T22:44:20.355Z,99088.00
2023-01-05T22:46:48.536Z,99093.00
2023-01-05T22:49:16.811Z,99083.00
2023-01-05T22:51:46.404Z,99076.00
2023-01-05T22:54:14.505Z,99084.00
2023-01-05T22:56:42.646Z,99072.00
2023-01-05T22:59:12.053Z,99074.00
2023-01-05T23:01:43.332Z,99089.00
2023-01-05T23:04:11.844Z,99070.00
2023-01-05T23:06:39.918Z,99068.00
2023-01-05T23:09:10.438Z,99065.00
2023-01-05T23:11:39.321Z,99067.00
2023-01-05T23:14:08.261Z,99058.00
2023-01-05T23:16:37.795Z,99060.00
2023-01-05T23:19:06.703Z,99059.00
2023-01-05T23:21:34.860Z,99070.00
2023-01-05T23:24:03.012Z,99065.00
2023-01-05T23:26:31.379Z,99061.00
2023-01-05T23:28:59.544Z,99056.00
2023-01-05T23:31:27.624Z,99060.00
2023-01-05T23:33:57.884Z,99062.00
2023-01-05T23:36:25.938Z,99055.00
2023-01-05T23:38:54.152Z,99053.00
2023-01-05T23:41:22.298Z,99041.00
2023-01-05T23:43:50.465Z,99041.00
2023-01-05T23:46:20.301Z,99041.00
2023-01-05T23:48:48.808Z,99036.00
2023-01-05T23:51:18.481Z,99041.00
2023-01-05T23:53:47.385Z,99026.00
2023-01-05T23:56:17.816Z,99033.00
2023-01-05T23:58:46.018Z,99034.00
